Tiempo atmosférico en la estación meteorológica de Antigua, Las Palmas (252 m.)



Fecha
DESCASC
Temp. máxima en grados centígrados (hora)
DESCASC
Temp. mínima en grados centígrados (hora)
DESCASC
Temp. media en grados centígrados
DESCASC
Racha de viento máxima en m/sg (hora)
DESCASC
Velocidad máxima media en intervalos de 10 minutos(hora)
DESCASC
Precipitaciones diarias en mm
DESCASC
Precipitaciones de 00:00 a 06:00 en mm
DESCASC
Precipitaciones de 06:00 a 12:00 en mm
DESCASC
Precipitaciones de 12:00 a 18:00 en mm
DESCASC
Precipitaciones de 18:00 a 24:00 en mm
DESCASC
21-02-2021 18 (14:20) 11.2 (23:40) 14.6 15 (00:30) 10.56 (00:30) 0.4 0.4 0 0 0
20-02-2021 22.2 (12:20) 11.4 (07:10) 16.8 21.94 (18:30) 14.17 (23:20) 2.2 0 0 0 2.2
19-02-2021 23.3 (15:00) 11.4 (02:40) 17.3 6.94 (18:00) 5 (23:30) 0 0 0 0 0
18-02-2021 20.6 (15:00) 11.8 (00:00) 16.2 9.17 (14:00) 6.11 (11:40) 0 0 0 0 0
17-02-2021 19 (15:50) 12.3 (00:00) 15.7 10.56 (13:00) 6.94 (13:00) 0 0 0 0 0
16-02-2021 20.8 (14:30) 14.2 (00:00) 17.5 14.17 (10:30) 9.44 (10:50) 0 0 0 0 0
15-02-2021 24.6 (15:10) 13.6 (00:00) 19.1 12.22 (13:50) 7.78 (14:40) 0 0 0 0 0
14-02-2021 21.5 (14:40) 12.3 (00:00) 16.9 7.5 (02:40) 4.72 (02:40) 0 0 0 0 0
13-02-2021 20.6 (15:00) 13.1 (00:00) 16.9 11.11 (17:10) 8.06 (18:00) 0 0 0 0 0
12-02-2021 20 (13:30) 13.3 (00:00) 16.7 11.39 (15:30) 7.78 (15:30) 0 0 0 0 0
11-02-2021 19.9 (13:20) 13 (00:00) 16.4 9.72 (14:50) 7.22 (14:50) 0 0 0 0 0
10-02-2021 20.1 (15:40) 13 (00:00) 16.6 7.78 (17:20) 5.56 (17:30) 0 0 0 0 0
09-02-2021 20.3 (15:00) 13.5 (00:00) 16.9 8.33 (11:40) 5.83 (15:30) 0 0 0 0 0
08-02-2021 19 (15:10) 12.9 (00:00) 15.9 7.78 (10:50) 5.56 (17:50) 0 0 0 0 0
07-02-2021 17.5 (14:30) 11.6 (00:00) 14.6 10 (02:50) 7.22 (17:00) 0 0 0 0 0
06-02-2021 16.5 (12:30) 10.2 (00:00) 13.3 15.83 (12:50) 11.11 (14:20) 0.2 0 0 0.2 0
05-02-2021 15.1 (13:50) 10.2 (00:00) 12.7 17.78 (02:20) 9.72 (02:30) 4.6 1 0.4 2.4 0.8
04-02-2021 15.6 (09:50) 11.8 (00:00) 13.7 15.83 (16:00) 11.11 (15:00) 1.2 0 0.6 0.6 0
03-02-2021 21.4 (13:00) 14 (00:00) 17.7 9.17 (17:00) 7.22 (17:00) 0 0 0 0 0
02-02-2021 21.5 (15:00) 14.1 (00:00) 17.8 7.22 (02:10) 4.17 (02:10) 0 0 0 0 0
01-02-2021 22.3 (13:30) 14.1 (00:00) 18.2 11.39 (13:00) 7.78 (13:50) 0 0 0 0 0
31-01-2021 20.8 (13:50) 14.4 (00:00) 17.6 13.89 (16:10) 10.56 (16:00) 0 0 0 0 0
30-01-2021 21.7 (13:10) 12.6 (00:00) 17.2 13.89 (02:50) 10 (02:50) 0 0 0 0 0
29-01-2021 27.2 (13:00) 13.5 (00:00) 20.4 7.22 (14:10) 5.28 (23:59) 0 0 0 0 0
28-01-2021 28.4 (14:40) 16.3 (00:00) 22.3 7.78 (15:20) 5 (16:00) 0 0 0 0 0
27-01-2021 26.2 (15:50) 12.1 (00:00) 19.2 6.39 (01:10) 3.33 (11:10) 0 0 0 0 0
26-01-2021 20.7 (15:40) 12.7 (00:00) 16.7 11.11 (11:40) 7.5 (13:40) 0 0 0 0 0
25-01-2021 21.2 (13:20) 12.1 (00:00) 16.7 10.28 (14:10) 8.06 (14:10) 0 0 0 0 0

Gráficas

Temp. máximas Temp. mínimas Temp. medias Precipitaciones Rachas de viento máximas Velocidades máximas media en intervalos de 10 minutos

Datos horarios

Fecha y hora oficial Temperatura (ºC) Velocidad del viento (km/h) Dirección del viento Racha (km/h) Dirección de racha Precipitación (mm) Presión (hPa) Tendencia (hPa) Humedad (%)
2021-02-23 23:00:00 14.2 9 Noroeste 12 Noroeste 0 -- -- 91
2021-02-23 22:00:00 15 9 Noroeste 18 Norte 0 -- -- 89
2021-02-23 21:00:00 15.4 3 Noroeste 18 Nordeste 0 -- -- 84
2021-02-23 20:00:00 16.2 11 Nordeste 19 Nordeste 0 -- -- 85
2021-02-23 19:00:00 17.5 13 Nordeste 18 Nordeste 0 -- -- 76
2021-02-23 18:00:00 18.5 10 Nordeste 21 Este 0 -- -- 73
2021-02-23 17:00:00 18.9 12 Nordeste 28 Este 0 -- -- 69
2021-02-23 16:00:00 19.4 20 Este 29 Este 0 -- -- 69
2021-02-23 15:00:00 19.9 17 Nordeste 31 Este 0 -- -- 67
2021-02-23 14:00:00 20.7 10 Norte 24 Nordeste 0 -- -- 58
2021-02-23 13:00:00 20.1 15 Nordeste 28 Este 0 -- -- 64
2021-02-23 12:00:00 18.5 15 Nordeste 25 Nordeste 0 -- -- 72
2021-02-23 11:00:00 18.5 18 Nordeste 26 Nordeste 0 -- -- 75
2021-02-23 10:00:00 17.4 18 Nordeste 25 Nordeste 0 -- -- 83
2021-02-23 09:00:00 16.4 8 Nordeste 18 Norte 0 -- -- 88
2021-02-23 08:00:00 13.4 5 Noroeste 10 Noroeste 0 -- -- 95
2021-02-23 07:00:00 12.4 5 Noroeste 10 Oeste 0 -- -- 94
2021-02-23 06:00:00 13 7 Norte 16 Norte 0 -- -- 92
2021-02-23 05:00:00 14.6 15 Noroeste 26 Noroeste 0 -- -- 91
2021-02-23 04:00:00 15 21 Noroeste 29 Norte 0 -- -- 91
2021-02-23 03:00:00 15.1 18 Noroeste 26 Noroeste 0 -- -- 91
2021-02-23 02:00:00 15.1 19 Noroeste 28 Noroeste 0 -- -- 91
2021-02-23 01:00:00 14.9 13 Noroeste 21 Noroeste 0 -- -- 88
2021-02-23 00:00:00 14.8 14 Noroeste 23 Noroeste 0 -- -- 90
2021-02-22 23:00:00 15 16 Noroeste 28 Noroeste 0 -- -- 88
2021-02-22 22:00:00 15.2 19 Noroeste 26 Noroeste 0 -- -- 87
2021-02-22 21:00:00 15.3 17 Noroeste 22 Norte 0 -- -- 84
2021-02-22 20:00:00 15.5 9 Noroeste 19 Norte 0 -- -- 81
2021-02-22 19:00:00 16.3 17 Noroeste 25 Noroeste 0 -- -- 78
2021-02-22 18:00:00 17.8 17 Norte 24 Norte 0 -- -- 69
2021-02-22 17:00:00 19.6 12 Norte 20 Norte 0 -- -- 62
2021-02-22 16:00:00 19.9 13 Norte 24 Norte 0 -- -- 60
2021-02-22 15:00:00 19.9 9 Este 15 Nordeste 0 -- -- 59
2021-02-22 14:00:00 20.2 12 Nordeste 21 Nordeste 0 -- -- 58
2021-02-22 13:00:00 19.3 5 Nordeste 18 Norte 0 -- -- 57
2021-02-22 12:00:00 18.3 8 Norte 18 Nordeste 0 -- -- 57
2021-02-22 11:00:00 17.4 5 Norte 17 Norte 0 -- -- 64
2021-02-22 10:00:00 16.4 6 Nordeste 13 Este 0 -- -- 74
2021-02-22 09:00:00 14.1 0 Calma 5 Noroeste 0 -- -- 90
2021-02-22 08:00:00 10.6 5 Noroeste 6 Norte 0 -- -- 94
2021-02-22 07:00:00 10.5 2 Noroeste 7 Noroeste 0 -- -- 92
2021-02-22 06:00:00 10.6 4 Noroeste 6 Noroeste 0 -- -- 93
2021-02-22 05:00:00 10.5 3 Norte 9 Noroeste 0 -- -- 91
2021-02-22 04:00:00 10.8 5 Noroeste 8 Noroeste 0 -- -- 91
2021-02-22 03:00:00 10.9 3 Noroeste 7 Oeste 0 -- -- 89
2021-02-22 02:00:00 10.9 3 Noroeste 8 Oeste 0 -- -- 90
2021-02-22 01:00:00 11.1 4 Noroeste 8 Oeste 0 -- -- 89
2021-02-22 00:00:00 11.2 3 Noroeste 8 Oeste 0 -- -- 89
2021-02-21 23:00:00 11.5 8 Noroeste 9 Noroeste 0 -- -- 87
2021-02-21 22:00:00 12.1 4 Noroeste 5 Norte 0 -- -- 86
2021-02-21 21:00:00 12.9 0 Calma 12 Noroeste 0 -- -- 81
2021-02-21 20:00:00 13.9 8 Noroeste 12 Noroeste 0 -- -- 76
2021-02-21 19:00:00 14.9 7 Norte 26 Noroeste 0 -- -- 71
2021-02-21 18:00:00 16.1 20 Noroeste 35 Noroeste 0 -- -- 66
2021-02-21 17:00:00 17.1 23 Noroeste 32 Noroeste 0 -- -- 61
2021-02-21 16:00:00 16.5 22 Noroeste 31 Noroeste 0 -- -- 65
2021-02-21 15:00:00 17.7 21 Noroeste 35 Norte 0 -- -- 63
2021-02-21 14:00:00 17.8 25 Noroeste 35 Noroeste 0 -- -- 62
2021-02-21 13:00:00 17.1 23 Norte 33 Noroeste 0 -- -- 66
2021-02-21 12:00:00 16.7 19 Noroeste 31 Noroeste 0 -- -- 68
2021-02-21 11:00:00 17 22 Noroeste 37 Noroeste 0 -- -- 70
2021-02-21 10:00:00 16.5 26 Noroeste 37 Noroeste 0 -- -- 76
2021-02-21 09:00:00 15.9 21 Noroeste 40 Noroeste 0 -- -- 74
2021-02-21 08:00:00 14.7 27 Noroeste 40 Noroeste 0 -- -- 77
2021-02-21 07:00:00 14.6 25 Noroeste 37 Noroeste 0 -- -- 74
2021-02-21 06:00:00 14.7 23 Noroeste 40 Noroeste 0 -- -- 78
2021-02-21 05:00:00 14.8 24 Noroeste 50 Noroeste 0 -- -- 82
2021-02-21 04:00:00 14.8 24 Noroeste 39 Noroeste 0 -- -- 87
2021-02-21 03:00:00 14.9 26 Noroeste 43 Noroeste 0 -- -- 90
2021-02-21 02:00:00 15 27 Noroeste 50 Noroeste 0 -- -- 92
2021-02-21 01:00:00 15.5 33 Noroeste 54 Noroeste 0.4 -- -- 93
2021-02-21 00:00:00 15.2 38 Oeste 72 Oeste 0 -- -- 95
2021-02-20 23:00:00 15.8 45 Noroeste 65 Noroeste 2.2 -- -- 91
2021-02-20 22:00:00 17.8 40 Oeste 64 Oeste 0 -- -- 81
2021-02-20 21:00:00 17.3 44 Oeste 67 Oeste 0 -- -- 84
2021-02-20 20:00:00 17.1 35 Sudoeste 68 Sudoeste 0 -- -- 83
2021-02-20 19:00:00 17.1 40 Sudoeste 79 Sudoeste 0 -- -- 77
2021-02-20 18:00:00 18.4 44 Sudoeste 64 Oeste 0 -- -- 53
2021-02-20 17:00:00 19.3 30 Sudoeste 49 Sudoeste 0 -- -- 53
2021-02-20 16:00:00 21 34 Sudoeste 53 Sur 0 -- -- 47
2021-02-20 15:00:00 21.3 36 Sur 52 Sur 0 -- -- 47
2021-02-20 14:00:00 21.6 27 Sur 46 Sur 0 -- -- 38
2021-02-20 13:00:00 21 25 Sur 42 Sudoeste 0 -- -- 41
2021-02-20 12:00:00 21.1 23 Sur 36 Sudeste 0 -- -- 34
2021-02-20 11:00:00 19 25 Sur 35 Sur 0 -- -- 59
2021-02-20 10:00:00 17.7 15 Sur 26 Sur 0 -- -- 67
2021-02-20 09:00:00 13.8 0 Calma 5 Noroeste 0 -- -- 68
2021-02-20 08:00:00 11.8 4 Noroeste 7 Noroeste 0 -- -- 50
2021-02-20 07:00:00 11.9 3 Noroeste 6 Norte 0 -- -- 46
2021-02-20 06:00:00 12 4 Noroeste 7 Noroeste 0 -- -- 47
2021-02-20 05:00:00 12.3 5 Noroeste 6 Noroeste 0 -- -- 45
2021-02-20 04:00:00 12.3 4 Noroeste 7 Noroeste 0 -- -- 41
2021-02-20 03:00:00 12.2 4 Noroeste 6 Noroeste 0 -- -- 41
2021-02-20 02:00:00 14.4 2 Sudoeste 8 Oeste 0 -- -- 33
2021-02-20 01:00:00 14 8 Noroeste 15 Oeste 0 -- -- 34
2021-02-20 00:00:00 14.6 11 Norte 21 Noroeste 0 -- -- 44
2021-02-19 23:00:00 15.3 14 Noroeste 17 Norte 0 -- -- 41
2021-02-19 22:00:00 14.6 10 Noroeste 13 Noroeste 0 -- -- 56
2021-02-19 21:00:00 15.7 6 Norte 18 Noroeste 0 -- -- 62
2021-02-19 20:00:00 16.3 13 Norte 17 Norte 0 -- -- 62
2021-02-19 19:00:00 17.6 13 Norte 23 Noroeste 0 -- -- 46
2021-02-19 18:00:00 19.6 18 Norte 25 Norte 0 -- -- 45
2021-02-19 17:00:00 22.2 7 Este 18 Este 0 -- -- 35
2021-02-19 16:00:00 22.9 10 Sudeste 23 Este 0 -- -- 32
2021-02-19 15:00:00 23.3 8 Sudeste 23 Sudeste 0 -- -- 26
2021-02-19 14:00:00 22.8 9 Sudeste 24 Este 0 -- -- 29
2021-02-19 13:00:00 22.2 11 Este 21 Este 0 -- -- 27
2021-02-19 12:00:00 21.2 12 Este 22 Este 0 -- -- 32
2021-02-19 11:00:00 20 8 Sudeste 13 Este 0 -- -- 46
2021-02-19 10:00:00 18.6 4 Sudeste 8 Sur 0 -- -- 44
2021-02-19 09:00:00 15 2 Oeste 8 Oeste 0 -- -- 58
2021-02-19 08:00:00 11.5 5 Noroeste 9 Sudoeste 0 -- -- 62
2021-02-19 07:00:00 12.4 0 Calma 8 Oeste 0 -- -- 48
2021-02-19 06:00:00 14.1 3 Sudoeste 7 Sudoeste 0 -- -- 44
2021-02-19 05:00:00 13.4 3 Sudoeste 9 Sudoeste 0 -- -- 41
2021-02-19 04:00:00 14 8 Oeste 12 Oeste 0 -- -- 41
2021-02-19 03:00:00 11.6 2 Oeste 11 Oeste 0 -- -- 45
2021-02-19 02:00:00 13.1 9 Noroeste 12 Noroeste 0 -- -- 44
2021-02-19 01:00:00 12.8 9 Noroeste 12 Noroeste 0 -- -- 51
2021-02-19 00:00:00 12.4 8 Noroeste 12 Noroeste 0 -- -- 63
2021-02-18 23:00:00 13.9 5 Noroeste 11 Noroeste 0 -- -- 53
2021-02-18 22:00:00 14.4 5 Noroeste 10 Norte 0 -- -- 69
2021-02-18 21:00:00 15.4 5 Noroeste 10 Norte 0 -- -- 37
2021-02-18 20:00:00 15.2 6 Noroeste 9 Noroeste 0 -- -- 47
2021-02-18 19:00:00 17.4 4 Sur 18 Este 0 -- -- 30
2021-02-18 18:00:00 18.9 12 Este 23 Este 0 -- -- 37
2021-02-18 17:00:00 19.9 15 Este 25 Este 0 -- -- 27
2021-02-18 16:00:00 20.5 17 Este 28 Este 0 -- -- 27
2021-02-18 15:00:00 20.6 19 Este 29 Nordeste 0 -- -- 37
2021-02-18 14:00:00 20.2 21 Este 33 Este 0 -- -- 41
2021-02-18 13:00:00 20.3 18 Este 32 Este 0 -- -- 45
2021-02-18 12:00:00 19.8 21 Este 32 Este 0 -- -- 48
2021-02-18 11:00:00 19 18 Este 27 Este 0 -- -- 49
2021-02-18 10:00:00 17.1 10 Este 19 Este 0 -- -- 77
2021-02-18 09:00:00 14.4 4 Sur 10 Este 0 -- -- 92
2021-02-18 08:00:00 13.3 4 Sur 9 Sur 0 -- -- 88
2021-02-18 07:00:00 13.1 4 Noroeste 9 Oeste 0 -- -- 84
2021-02-18 06:00:00 12.2 5 Noroeste 9 Oeste 0 -- -- 79
2021-02-18 05:00:00 12.9 0 Calma 9 Noroeste 0 -- -- 81
2021-02-18 04:00:00 12 4 Noroeste 9 Oeste 0 -- -- 82
2021-02-18 03:00:00 12.8 4 Norte 7 Sudoeste 0 -- -- 75
2021-02-18 02:00:00 14 3 Sudoeste 10 Oeste 0 -- -- 72
2021-02-18 01:00:00 13.2 3 Oeste 9 Oeste 0 -- -- 56
2021-02-18 00:00:00 13 6 Norte 10 Noroeste 0 -- -- 32
2021-02-17 23:00:00 12.9 5 Noroeste 12 Oeste 0 -- -- 32
2021-02-17 22:00:00 13.7 8 Noroeste 15 Noroeste 0 -- -- 32
2021-02-17 21:00:00 13.6 6 Noroeste 12 Noroeste 0 -- -- 36
2021-02-17 20:00:00 14.5 6 Nordeste 12 Nordeste 0 -- -- 39
2021-02-17 19:00:00 16.5 7 Nordeste 14 Nordeste 0 -- -- 34
2021-02-17 18:00:00 17.9 8 Norte 13 Norte 0 -- -- 31
2021-02-17 17:00:00 18.5 5 Este 19 Este 0 -- -- 29
2021-02-17 16:00:00 18.8 10 Sudeste 29 Sudeste 0 -- -- 28
2021-02-17 15:00:00 18.5 17 Sudeste 35 Sudeste 0 -- -- 31
2021-02-17 14:00:00 18.8 22 Este 36 Este 0 -- -- 32
2021-02-17 13:00:00 18.7 25 Este 38 Este 0 -- -- 32
2021-02-17 12:00:00 18.4 24 Sudeste 36 Este 0 -- -- 34
2021-02-17 11:00:00 18 24 Sudeste 36 Este 0 -- -- 33
2021-02-17 10:00:00 17.4 22 Sudeste 35 Sudeste 0 -- -- 36
2021-02-17 09:00:00 15.5 10 Sudeste 23 Sudeste 0 -- -- 45
2021-02-17 08:00:00 13 10 Sudeste 18 Sudeste 0 -- -- 60
2021-02-17 07:00:00 13.4 12 Sudeste 24 Sudeste 0 -- -- 66
2021-02-17 06:00:00 13.1 7 Sudeste 20 Este 0 -- -- 86
2021-02-17 05:00:00 13.8 8 Sudeste 21 Este 0 -- -- 90
2021-02-17 04:00:00 14.1 6 Sudeste 14 Sudeste 0 -- -- 89
2021-02-17 03:00:00 14.3 6 Sudeste 18 Este 0 -- -- 87
2021-02-17 02:00:00 15.1 6 Sur 24 Este 0 -- -- 76
2021-02-17 01:00:00 16.3 16 Este 29 Este 0 -- -- 61
2021-02-17 00:00:00 16.9 19 Este 32 Este 0 -- -- 54
2021-02-16 23:00:00 17.4 15 Nordeste 27 Este 0 -- -- 46
2021-02-16 22:00:00 18 14 Nordeste 27 Nordeste 0 -- -- 33
2021-02-16 21:00:00 18.8 15 Este 27 Este 0 -- -- 30
2021-02-16 20:00:00 18.4 9 Este 30 Este 0 -- -- 28
2021-02-16 19:00:00 18.9 21 Este 33 Este 0 -- -- 25
2021-02-16 18:00:00 19.7 21 Este 45 Este 0 -- -- 27
2021-02-16 17:00:00 20.4 23 Este 40 Este 0 -- -- 22
2021-02-16 16:00:00 20.4 29 Este 39 Este 0 -- -- 28
2021-02-16 15:00:00 20.2 27 Este 40 Sudeste 0 -- -- 31
2021-02-16 14:00:00 20.3 27 Sudeste 41 Sudeste 0 -- -- 32
2021-02-16 13:00:00 19.9 30 Sudeste 46 Este 0 -- -- 38
2021-02-16 12:00:00 20 31 Sudeste 51 Este 0 -- -- 34
2021-02-16 11:00:00 19.9 31 Sudeste 51 Este 0 -- -- 31
2021-02-16 10:00:00 19.4 30 Sudeste 40 Este 0 -- -- 38
2021-02-16 09:00:00 17.6 22 Sudeste 30 Sudeste 0 -- -- 47
2021-02-16 08:00:00 16 20 Sudeste 39 Sudeste 0 -- -- 49
2021-02-16 07:00:00 16.6 25 Sudeste 40 Sudeste 0 -- -- 44
2021-02-16 06:00:00 16.1 23 Sudeste 34 Sudeste 0 -- -- 55
2021-02-16 05:00:00 14.2 13 Sur 18 Sudeste 0 -- -- 86
2021-02-16 04:00:00 15.3 11 Sudeste 23 Sudeste 0 -- -- 88
2021-02-16 03:00:00 15.2 10 Sur 19 Sudeste 0 -- -- 85
2021-02-16 02:00:00 16.2 12 Sudeste 23 Este 0 -- -- 74
2021-02-16 01:00:00 16.4 7 Sur 14 Sudeste 0 -- -- 61
2021-02-16 00:00:00 17.3 7 Sur 20 Este 0 -- -- 51
2021-02-15 23:00:00 19.2 15 Este 23 Este 0 -- -- 43
2021-02-15 22:00:00 20.1 14 Este 20 Este 0 -- -- 37
2021-02-15 21:00:00 20.2 12 Este 26 Este 0 -- -- 36
2021-02-15 20:00:00 20.4 21 Este 28 Este 0 -- -- 37
2021-02-15 19:00:00 20.8 14 Este 22 Este 0 -- -- 37
2021-02-15 18:00:00 22 14 Este 24 Este 0 -- -- 33
2021-02-15 17:00:00 23.2 15 Este 25 Este 0 -- -- 27
2021-02-15 16:00:00 24 17 Este 37 Este 0 -- -- 28
2021-02-15 15:00:00 24.3 25 Sudeste 41 Sudeste 0 -- -- 23
2021-02-15 14:00:00 23.2 26 Sudeste 44 Sudeste 0 -- -- 28
2021-02-15 13:00:00 22.2 21 Sudeste 38 Sudeste 0 -- -- 32
2021-02-15 12:00:00 21.8 23 Sudeste 37 Sudeste 0 -- -- 37
2021-02-15 11:00:00 21.4 26 Sudeste 40 Sudeste 0 -- -- 40
2021-02-15 10:00:00 19.2 15 Sudeste 26 Sudeste 0 -- -- 57
2021-02-15 09:00:00 17.3 9 Sur 15 Sudeste 0 -- -- 68
2021-02-15 08:00:00 15.3 2 Sur 8 Sur 0 -- -- 77
2021-02-15 07:00:00 15.7 4 Sur 10 Sur 0 -- -- 72
2021-02-15 06:00:00 16.2 3 Sur 13 Sudeste 0 -- -- 65
2021-02-15 05:00:00 13.6 0 Calma 9 Oeste 0 -- -- 94
2021-02-15 04:00:00 14.3 2 Sur 6 Sur 0 -- -- 95
2021-02-15 03:00:00 14.6 5 Sur 10 Sur 0 -- -- 95
2021-02-15 02:00:00 14.8 6 Sur 9 Sur 0 -- -- 94
2021-02-15 01:00:00 15.2 5 Sudeste 10 Sudeste 0 -- -- 93
2021-02-15 00:00:00 14.9 5 Sudoeste 9 Sudoeste 0 -- -- 92
2021-02-14 23:00:00 15.6 5 Sur 22 Este 0 -- -- 88
2021-02-14 22:00:00 17.1 8 Noroeste 10 Noroeste 0 -- -- 41
2021-02-14 21:00:00 14.8 7 Noroeste 9 Noroeste 0 -- -- 71
2021-02-14 20:00:00 16.6 5 Este 8 Este 0 -- -- 81
2021-02-14 19:00:00 18.3 3 Nordeste 9 Este 0 -- -- 74
2021-02-14 18:00:00 20.1 6 Este 13 Este 0 -- -- 65
2021-02-14 17:00:00 21 9 Este 15 Sudeste 0 -- -- 60
2021-02-14 16:00:00 21.5 8 Sudeste 21 Sudeste 0 -- -- 55
2021-02-14 15:00:00 21.4 13 Este 27 Este 0 -- -- 57
2021-02-14 14:00:00 21.1 12 Este 21 Este 0 -- -- 62
2021-02-14 13:00:00 20.4 10 Este 21 Este 0 -- -- 66
2021-02-14 12:00:00 18.6 9 Nordeste 22 Nordeste 0 -- -- 73
2021-02-14 11:00:00 17.9 12 Nordeste 19 Nordeste 0 -- -- 77
2021-02-14 10:00:00 16.7 9 Nordeste 17 Este 0 -- -- 82
2021-02-14 09:00:00 15.3 3 Nordeste 13 Norte 0 -- -- 89
2021-02-14 08:00:00 14.2 8 Norte 11 Norte 0 -- -- 91
2021-02-14 07:00:00 13.8 6 Norte 13 Nordeste 0 -- -- 92
2021-02-14 06:00:00 13.5 7 Norte 15 Nordeste 0 -- -- 93
2021-02-14 05:00:00 12.5 8 Noroeste 14 Noroeste 0 -- -- 93
2021-02-14 04:00:00 12.5 11 Norte 21 Nordeste 0 -- -- 92
2021-02-14 03:00:00 13.7 16 Norte 27 Nordeste 0 -- -- 92
2021-02-14 02:00:00 14 3 Oeste 17 Nordeste 0 -- -- 92
2021-02-14 01:00:00 14 10 Norte 21 Nordeste 0 -- -- 92
2021-02-14 00:00:00 13.7 3 Oeste 11 Sudeste 0 -- -- 91
2021-02-13 23:00:00 13.7 5 Norte 20 Noroeste 0 -- -- 90
2021-02-13 22:00:00 14.6 15 Noroeste 24 Norte 0 -- -- 89
2021-02-13 21:00:00 14.8 19 Norte 25 Norte 0 -- -- 88
2021-02-13 20:00:00 15.3 19 Norte 26 Noroeste 0 -- -- 84
2021-02-13 19:00:00 16 21 Norte 38 Norte 0 -- -- 81
2021-02-13 18:00:00 17.8 29 Noroeste 40 Norte 0 -- -- 76
2021-02-13 17:00:00 20.3 17 Norte 30 Norte 0 -- -- 67
2021-02-13 16:00:00 20.3 25 Noroeste 39 Noroeste 0 -- -- 67
2021-02-13 15:00:00 20.6 19 Nordeste 29 Nordeste 0 -- -- 63
2021-02-13 14:00:00 19.9 19 Nordeste 30 Nordeste 0 -- -- 65
2021-02-13 13:00:00 19.3 17 Nordeste 32 Este 0 -- -- 67
2021-02-13 12:00:00 18.7 17 Nordeste 28 Nordeste 0 -- -- 70
2021-02-13 07:00:00 -- -- -- -- -- -- -- -- --
2021-02-13 06:00:00 14.9 7 Noroeste 17 Nordeste 0 -- -- 87
2021-02-13 05:00:00 14.8 10 Nordeste 19 Nordeste 0 -- -- 86
2021-02-13 04:00:00 14.7 10 Norte 17 Norte 0 -- -- 87
2021-02-13 03:00:00 14.6 9 Norte 17 Nordeste 0 -- -- 87
2021-02-13 02:00:00 13.2 10 Norte 15 Norte 0 -- -- 90
2021-02-13 01:00:00 13.5 11 Norte 14 Noroeste 0 -- -- 89
2021-02-13 00:00:00 13.9 9 Norte 13 Norte 0 -- -- 89
2021-02-12 23:00:00 14.3 7 Norte 15 Norte 0 -- -- 87
2021-02-12 22:00:00 15.4 10 Norte 15 Norte 0 -- -- 84
2021-02-12 21:00:00 16.2 10 Norte 16 Nordeste 0 -- -- 83
2021-02-12 20:00:00 16.6 12 Nordeste 26 Nordeste 0 -- -- 83
2021-02-12 19:00:00 16.8 17 Nordeste 30 Nordeste 0 -- -- 82
2021-02-12 18:00:00 17.3 21 Nordeste 33 Nordeste 0 -- -- 78
2021-02-12 17:00:00 17.8 24 Nordeste 38 Nordeste 0 -- -- 74
2021-02-12 16:00:00 18.6 26 Nordeste 41 Nordeste 0 -- -- 70
2021-02-12 15:00:00 19.5 23 Nordeste 37 Nordeste 0 -- -- 66
2021-02-12 14:00:00 19.7 24 Nordeste 37 Nordeste 0 -- -- 67
2021-02-12 13:00:00 19.8 23 Nordeste 32 Nordeste 0 -- -- 64
2021-02-12 12:00:00 18.8 18 Nordeste 33 Nordeste 0 -- -- 65
2021-02-12 11:00:00 18.6 21 Norte 32 Norte 0 -- -- 66
2021-02-12 10:00:00 17.3 19 Nordeste 36 Norte 0 -- -- 69
2021-02-12 09:00:00 16.3 18 Norte 32 Norte 0 -- -- 73
2021-02-12 08:00:00 15.5 15 Norte 25 Norte 0 -- -- 78
2021-02-12 07:00:00 15.9 13 Nordeste 23 Norte 0 -- -- 77
2021-02-12 06:00:00 15.7 14 Nordeste 26 Norte 0 -- -- 75
2021-02-12 05:00:00 15.7 13 Norte 23 Norte 0 -- -- 77
2021-02-12 04:00:00 15.8 9 Nordeste 23 Nordeste 0 -- -- 77
2021-02-12 03:00:00 15.7 12 Nordeste 22 Nordeste 0 -- -- 78
2021-02-12 02:00:00 15.6 15 Norte 26 Nordeste 0 -- -- 80
2021-02-12 01:00:00 14.3 8 Norte 13 Nordeste 0 -- -- 91
2021-02-12 00:00:00 13.3 7 Norte 11 Norte 0 -- -- 91
2021-02-11 23:00:00 14.2 8 Noroeste 14 Noroeste 0 -- -- 89
2021-02-11 22:00:00 15.1 11 Noroeste 20 Noroeste 0 -- -- 87
2021-02-11 21:00:00 15.2 14 Noroeste 19 Noroeste 0 -- -- 84
2021-02-11 20:00:00 15.5 13 Noroeste 22 Noroeste 0 -- -- 80
2021-02-11 19:00:00 16.5 17 Noroeste 31 Noroeste 0 -- -- 75
2021-02-11 18:00:00 17.3 23 Norte 34 Norte 0 -- -- 70
2021-02-11 17:00:00 18.2 23 Norte 34 Noroeste 0 -- -- 67
2021-02-11 16:00:00 18.5 25 Noroeste 34 Noroeste 0 -- -- 66
2021-02-11 15:00:00 19.4 24 Norte 35 Noroeste 0 -- -- 65
2021-02-11 14:00:00 19.3 22 Noroeste 33 Noroeste 0 -- -- 69
2021-02-11 13:00:00 19.4 17 Norte 26 Norte 0 -- -- 69
2021-02-11 12:00:00 18.8 17 Noroeste 24 Noroeste 0 -- -- 73
2021-02-11 11:00:00 17.9 9 Norte 12 Nordeste 0 -- -- 74
2021-02-11 10:00:00 16.1 4 Norte 11 Norte 0 -- -- 90
2021-02-11 09:00:00 14.9 2 Noroeste 7 Oeste 0 -- -- 95
2021-02-11 08:00:00 14.4 3 Oeste 10 Norte 0 -- -- 95
2021-02-11 07:00:00 14.6 8 Noroeste 15 Norte 0 -- -- 93
2021-02-11 06:00:00 14.9 4 Noroeste 12 Noroeste 0 -- -- 91
2021-02-11 05:00:00 14.5 5 Norte 7 Noroeste 0 -- -- 92
2021-02-11 04:00:00 14.2 6 Noroeste 10 Noroeste 0 -- -- 89
2021-02-11 03:00:00 15.2 7 Noroeste 13 Noroeste 0 -- -- 87
2021-02-11 02:00:00 15.7 10 Noroeste 14 Noroeste 0 -- -- 86
2021-02-11 01:00:00 15.6 8 Noroeste 11 Norte 0 -- -- 86
2021-02-11 00:00:00 -- 7 Norte 12 Noroeste 0 -- -- --
2021-02-10 23:00:00 16 8 Norte 15 Norte 0 -- -- 88
2021-02-10 22:00:00 15.8 10 Noroeste 21 Noroeste 0 -- -- 88
2021-02-10 21:00:00 16.1 15 Noroeste 22 Noroeste 0 -- -- 88
2021-02-10 20:00:00 16.3 17 Noroeste 24 Noroeste 0 -- -- 85
2021-02-10 19:00:00 16.6 18 Noroeste 24 Noroeste 0 -- -- 82
2021-02-10 18:00:00 17.8 19 Norte 28 Noroeste 0 -- -- 74
2021-02-10 17:00:00 19 19 Noroeste 26 Noroeste 0 -- -- 71
2021-02-10 16:00:00 19.7 15 Noroeste 25 Noroeste 0 -- -- 66
2021-02-10 15:00:00 19.6 15 Noroeste 24 Noroeste 0 -- -- 72
2021-02-10 14:00:00 19.5 14 Noroeste 25 Noroeste 0 -- -- 74
2021-02-10 13:00:00 18.8 18 Noroeste 27 Noroeste 0 -- -- 79
2021-02-10 12:00:00 18.5 15 Noroeste 24 Noroeste 0 -- -- 77
2021-02-10 11:00:00 17.8 18 Noroeste 25 Noroeste 0 -- -- 80
2021-02-10 10:00:00 16.9 18 Noroeste 24 Noroeste 0 -- -- 87
2021-02-10 09:00:00 16 12 Noroeste 19 Noroeste 0 -- -- 93
2021-02-10 08:00:00 14.3 11 Noroeste 21 Noroeste 0 -- -- 96
2021-02-10 07:00:00 14.5 10 Noroeste 15 Noroeste 0 -- -- 97
2021-02-10 06:00:00 14.5 5 Norte 10 Norte 0 -- -- 96
2021-02-10 05:00:00 13.6 0 Calma 5 Noroeste 0 -- -- 96
2021-02-10 04:00:00 13 2 Norte 5 Norte 0 -- -- 94
2021-02-10 03:00:00 13.4 3 Norte 4 Norte 0 -- -- 95
2021-02-10 02:00:00 13.7 0 Calma 4 Norte 0 -- -- 94
2021-02-10 01:00:00 13.6 0 Calma 10 Noroeste 0 -- -- 93
2021-02-10 00:00:00 13.5 7 Noroeste 9 Noroeste 0 -- -- 91
2021-02-09 23:00:00 14.8 6 Norte 12 Noroeste 0 -- -- 92
2021-02-09 22:00:00 15.6 8 Noroeste 19 Noroeste 0 -- -- 91
2021-02-09 21:00:00 15.9 15 Noroeste 21 Noroeste 0 -- -- 91
2021-02-09 20:00:00 -- 11 Noroeste 15 Noroeste 0 -- -- --
2021-02-09 19:00:00 16.7 10 Noroeste 17 Noroeste 0 -- -- 81
2021-02-09 18:00:00 17.7 12 Noroeste 19 Noroeste 0 -- -- 72
2021-02-09 17:00:00 18.5 13 Noroeste 26 Noroeste 0 -- -- 69
2021-02-09 16:00:00 19.6 20 Noroeste 27 Norte 0 -- -- 64
2021-02-09 15:00:00 20.3 14 Norte 23 Noroeste 0 -- -- 59
2021-02-09 14:00:00 19.7 14 Norte 28 Noroeste 0 -- -- 62
2021-02-09 13:00:00 19.7 17 Noroeste 26 Norte 0 -- -- 61
2021-02-09 12:00:00 19.3 17 Noroeste 30 Noroeste 0 -- -- 64
2021-02-09 11:00:00 18.6 15 Noroeste 26 Noroeste 0 -- -- 65
2021-02-09 10:00:00 18.1 14 Noroeste 27 Noroeste 0 -- -- 66
2021-02-09 09:00:00 16.6 17 Noroeste 26 Noroeste 0 -- -- 73
2021-02-09 08:00:00 14.2 11 Noroeste 18 Noroeste 0 -- -- 84
2021-02-09 07:00:00 14.5 15 Noroeste 24 Noroeste 0 -- -- 81
2021-02-09 06:00:00 14.2 15 Noroeste 22 Noroeste 0 -- -- 80
2021-02-09 05:00:00 14.1 15 Noroeste 22 Noroeste 0 -- -- 83
2021-02-09 04:00:00 14.3 13 Noroeste 20 Noroeste 0 -- -- 85
2021-02-09 03:00:00 14.7 13 Noroeste 18 Noroeste 0 -- -- 84
2021-02-09 02:00:00 14.6 7 Noroeste 16 Noroeste 0 -- -- 78
2021-02-09 01:00:00 15.7 8 Noroeste 15 Noroeste 0 -- -- 77
2021-02-09 00:00:00 15.8 8 Noroeste 20 Norte 0 -- -- 74
2021-02-08 23:00:00 16 13 Norte 26 Norte 0 -- -- 75
2021-02-08 22:00:00 15.8 17 Noroeste 27 Noroeste 0 -- -- 72
2021-02-08 21:00:00 15.6 11 Noroeste 18 Noroeste 0 -- -- 86
2021-02-08 20:00:00 15.6 14 Noroeste 25 Noroeste 0 -- -- 85
2021-02-08 19:00:00 15.8 17 Noroeste 24 Noroeste 0 -- -- 81
2021-02-08 18:00:00 16.9 19 Noroeste 26 Noroeste 0 -- -- 70
2021-02-08 17:00:00 17.9 16 Noroeste 25 Noroeste 0 -- -- 69
2021-02-08 16:00:00 18.5 18 Noroeste 28 Noroeste 0 -- -- 67
2021-02-08 15:00:00 18.8 15 Noroeste 26 Noroeste 0 -- -- 70
2021-02-08 14:00:00 18.5 17 Norte 26 Noroeste 0 -- -- 71
2021-02-08 13:00:00 18.2 19 Noroeste 26 Noroeste 0 -- -- 70
2021-02-08 12:00:00 17.4 15 Norte 28 Noroeste 0 -- -- 71
2021-02-08 11:00:00 16.6 15 Norte 28 Noroeste 0 -- -- 75
2021-02-08 10:00:00 15.4 9 Norte 14 Noroeste 0 -- -- 84
2021-02-08 09:00:00 14 6 Norte 20 Norte 0 -- -- 91
2021-02-08 08:00:00 13.4 5 Norte 12 Noroeste 0 -- -- 90
2021-02-08 07:00:00 13.5 9 Noroeste 20 Norte 0 -- -- 89
2021-02-08 06:00:00 13.8 7 Norte 26 Noroeste 0 -- -- 82
2021-02-08 05:00:00 13.6 13 Noroeste 21 Noroeste 0 -- -- 82
2021-02-08 04:00:00 13.5 9 Noroeste 16 Noroeste 0 -- -- 83
2021-02-08 03:00:00 13.2 8 Noroeste 12 Norte 0 -- -- 85
2021-02-08 02:00:00 13.3 6 Noroeste 14 Noroeste 0 -- -- 85
2021-02-08 01:00:00 13.2 6 Norte 14 Norte 0 -- -- 88
2021-02-08 00:00:00 12.9 6 Noroeste 15 Noroeste 0 -- -- 88
2021-02-07 23:00:00 12.6 7 Noroeste 11 Noroeste 0 -- -- 89
2021-02-07 22:00:00 12.1 8 Noroeste 11 Noroeste 0 -- -- 88
2021-02-07 21:00:00 12.7 7 Noroeste 12 Noroeste 0 -- -- 86
2021-02-07 20:00:00 13.1 8 Noroeste 14 Norte 0 -- -- 83
2021-02-07 19:00:00 14 13 Noroeste 24 Noroeste 0 -- -- 78
2021-02-07 18:00:00 14.9 18 Noroeste 28 Noroeste 0 -- -- 75
2021-02-07 17:00:00 15.6 26 Noroeste 33 Noroeste 0 -- -- 74
2021-02-07 16:00:00 16.6 23 Norte 32 Noroeste 0 -- -- 64
2021-02-07 15:00:00 16.5 25 Noroeste 33 Noroeste 0 -- -- 68
2021-02-07 14:00:00 16.9 21 Noroeste 29 Noroeste 0 -- -- 65
2021-02-07 13:00:00 16.9 22 Norte 33 Noroeste 0 -- -- 71
2021-02-07 12:00:00 16.9 22 Norte 32 Norte 0 -- -- 65
2021-02-07 11:00:00 16.2 21 Norte 30 Norte 0 -- -- 67
2021-02-07 10:00:00 15.2 19 Norte 29 Norte 0 -- -- 80
2021-02-07 09:00:00 13.6 9 Norte 18 Noroeste 0 -- -- 85
2021-02-07 08:00:00 12.7 13 Noroeste 23 Noroeste 0 -- -- 84
2021-02-07 07:00:00 11.7 9 Noroeste 17 Noroeste 0 -- -- 89
2021-02-07 06:00:00 11.8 10 Norte 15 Noroeste 0 -- -- 87
2021-02-07 05:00:00 12.8 15 Noroeste 30 Noroeste 0 -- -- 85
2021-02-07 04:00:00 12.9 18 Noroeste 30 Noroeste 0 -- -- 82
2021-02-07 03:00:00 13.1 22 Noroeste 36 Noroeste 0 -- -- 86
2021-02-07 02:00:00 12.3 10 Norte 21 Noroeste 0 -- -- 86
2021-02-07 01:00:00 12.5 16 Noroeste 30 Noroeste 0 -- -- 85
2021-02-07 00:00:00 13 20 Noroeste 28 Noroeste 0 -- -- 83
2021-02-06 23:00:00 12.9 19 Norte 29 Norte 0 -- -- 85
2021-02-06 22:00:00 13 24 Noroeste 39 Noroeste 0 -- -- 80
2021-02-06 21:00:00 13.3 25 Noroeste 39 Noroeste 0 -- -- 81
2021-02-06 20:00:00 12.9 29 Noroeste 43 Norte 0 -- -- 88
2021-02-06 19:00:00 13.7 26 Noroeste 46 Noroeste 0 -- -- 82
2021-02-06 18:00:00 14.4 32 Noroeste 50 Noroeste 0 -- -- 77
2021-02-06 17:00:00 15.2 35 Noroeste 50 Noroeste 0 -- -- 68
2021-02-06 16:00:00 14.9 34 Noroeste 51 Noroeste 0 -- -- 74
2021-02-06 15:00:00 16.4 37 Noroeste 55 Noroeste 0 -- -- 66
2021-02-06 14:00:00 15.2 36 Noroeste 52 Noroeste 0.2 -- -- 74
2021-02-06 13:00:00 15.7 33 Noroeste 57 Noroeste 0 -- -- 74
2021-02-06 12:00:00 16.1 38 Noroeste 53 Noroeste 0 -- -- 64
2021-02-06 11:00:00 15.5 37 Noroeste 53 Noroeste 0 -- -- 68
2021-02-06 10:00:00 14.5 33 Noroeste 49 Noroeste 0 -- -- 72
2021-02-06 09:00:00 13.4 30 Noroeste 41 Noroeste 0 -- -- 76
2021-02-06 08:00:00 11.7 21 Noroeste 33 Noroeste 0 -- -- 82
2021-02-06 07:00:00 12 21 Noroeste 37 Noroeste 0 -- -- 78
2021-02-06 06:00:00 12 23 Noroeste 38 Noroeste 0 -- -- 79
2021-02-06 05:00:00 11.8 26 Noroeste 37 Noroeste 0 -- -- 78
2021-02-06 04:00:00 11.5 27 Noroeste 38 Noroeste 0 -- -- 79
2021-02-06 03:00:00 11 23 Noroeste 42 Noroeste 0 -- -- 85
2021-02-06 02:00:00 11.1 21 Noroeste 31 Noroeste 0 -- -- 87
2021-02-06 01:00:00 10.9 17 Noroeste 30 Noroeste 0 -- -- 91
2021-02-06 00:00:00 10.2 13 Noroeste 25 Norte 0 -- -- 93
2021-02-05 23:00:00 10.8 21 Norte 40 Noroeste 0.8 -- -- 92
2021-02-05 22:00:00 11.1 17 Noroeste 30 Noroeste 0 -- -- 87
2021-02-05 21:00:00 11.1 7 Noroeste 44 Norte 0 -- -- 91
2021-02-05 20:00:00 11.4 5 Norte 40 Noroeste 0 -- -- 86
2021-02-05 19:00:00 12.3 19 Noroeste 28 Noroeste 0 -- -- 79
2021-02-05 18:00:00 12.9 16 Noroeste 26 Noroeste 0 -- -- 79
2021-02-05 17:00:00 13.2 22 Noroeste 30 Norte 0 -- -- 78
2021-02-05 16:00:00 12.6 22 Norte 39 Norte 0 -- -- 90
2021-02-05 15:00:00 12.9 27 Noroeste 38 Noroeste 0 -- -- 82
2021-02-05 14:00:00 14.6 26 Noroeste 39 Noroeste 0 -- -- 74
2021-02-05 13:00:00 13.5 20 Noroeste 37 Noroeste 2.4 -- -- 86
2021-02-05 12:00:00 13.1 19 Noroeste 40 Noroeste 0 -- -- 82
2021-02-05 11:00:00 14.2 23 Noroeste 37 Noroeste 0 -- -- 80
2021-02-05 10:00:00 12.3 24 Noroeste 44 Noroeste 0 -- -- 83
2021-02-05 09:00:00 12.2 20 Noroeste 45 Oeste 0 -- -- 83
2021-02-05 08:00:00 11.8 31 Oeste 55 Oeste 0.4 -- -- 81
2021-02-05 07:00:00 11.9 20 Oeste 39 Oeste 0 -- -- 80
2021-02-05 06:00:00 11.4 19 Oeste 50 Noroeste 0.4 -- -- 80
2021-02-05 05:00:00 12.1 23 Oeste 36 Oeste 0 -- -- 77
2021-02-05 04:00:00 12.1 21 Oeste 47 Oeste 0 -- -- 77
2021-02-05 03:00:00 11.7 22 Oeste 64 Oeste 0.6 -- -- 75
2021-02-05 02:00:00 12.6 21 Noroeste 48 Oeste 0 -- -- 75
2021-02-05 01:00:00 13.2 17 Oeste 48 Oeste 0 -- -- 69
2021-02-05 00:00:00 13.1 32 Oeste 48 Oeste 0 -- -- 71
2021-02-04 23:00:00 13 23 Noroeste 38 Oeste 0 -- -- 75
2021-02-04 22:00:00 13.5 20 Oeste 40 Oeste 0 -- -- 74
2021-02-04 21:00:00 13.6 17 Noroeste 32 Noroeste 0 -- -- 76
2021-02-04 20:00:00 13.7 17 Noroeste 38 Noroeste 0 -- -- 79
2021-02-04 19:00:00 13.9 20 Noroeste 36 Noroeste 0 -- -- 80
2021-02-04 18:00:00 13.6 27 Oeste 51 Oeste 0 -- -- 83
2021-02-04 17:00:00 14.3 35 Oeste 52 Oeste 0 -- -- 82
2021-02-04 16:00:00 12.7 32 Oeste 57 Oeste 0.4 -- -- 89
2021-02-04 15:00:00 13.6 40 Oeste 56 Oeste 0 -- -- 83
2021-02-04 14:00:00 13.1 33 Noroeste 50 Oeste 0.2 -- -- 89
2021-02-04 13:00:00 14.5 32 Noroeste 51 Noroeste 0 -- -- 84
2021-02-04 12:00:00 -- 33 Noroeste 49 Noroeste 0 -- -- --
2021-02-04 11:00:00 14.3 30 Noroeste 41 Noroeste 0.6 -- -- 94
2021-02-04 10:00:00 15.6 8 Oeste 22 Oeste 0 -- -- 86
2021-02-04 09:00:00 15.3 11 Oeste 18 Oeste 0 -- -- 85
2021-02-04 08:00:00 14.2 0 Calma 15 Sudoeste 0 -- -- 83
2021-02-04 07:00:00 14.5 8 Oeste 17 Oeste 0 -- -- 82
2021-02-04 06:00:00 13.2 9 Oeste 14 Oeste 0 -- -- 87
2021-02-04 05:00:00 13.1 2 Oeste 6 Noroeste 0 -- -- 84
2021-02-04 04:00:00 14 6 Norte 17 Noroeste 0 -- -- 83
2021-02-04 03:00:00 14.3 9 Noroeste 18 Noroeste 0 -- -- 82
2021-02-04 02:00:00 14.1 13 Noroeste 31 Noroeste 0 -- -- 81
2021-02-04 01:00:00 14.4 19 Noroeste 26 Noroeste 0 -- -- 83
2021-02-04 00:00:00 14.6 14 Noroeste 27 Noroeste 0 -- -- 83
2021-02-03 23:00:00 14.8 17 Noroeste 27 Noroeste 0 -- -- 84
2021-02-03 22:00:00 14.8 17 Noroeste 26 Noroeste 0 -- -- 85
2021-02-03 21:00:00 15 14 Norte 28 Noroeste 0 -- -- 86
2021-02-03 20:00:00 15.2 20 Norte 27 Noroeste 0 -- -- 85
2021-02-03 19:00:00 15.6 20 Noroeste 28 Norte 0 -- -- 82
2021-02-03 18:00:00 16.5 23 Noroeste 32 Noroeste 0 -- -- 78
2021-02-03 17:00:00 17.9 26 Noroeste 33 Noroeste 0 -- -- 73
2021-02-03 16:00:00 19.6 15 Noroeste 26 Noroeste 0 -- -- 67
2021-02-03 15:00:00 20.2 14 Norte 26 Norte 0 -- -- 66
2021-02-03 14:00:00 20.6 14 Noroeste 26 Norte 0 -- -- 65
2021-02-03 13:00:00 21.4 9 Norte 26 Norte 0 -- -- 62
2021-02-03 12:00:00 19.3 5 Nordeste 13 Sudeste 0 -- -- 68
2021-02-03 11:00:00 18.2 6 Sudeste 12 Este 0 -- -- 74
2021-02-03 10:00:00 16.1 4 Sudeste 9 Sudeste 0 -- -- 82
2021-02-03 09:00:00 15.2 0 Calma 4 Este 0 -- -- 86
2021-02-03 08:00:00 14.1 2 Sudeste 6 Sur 0 -- -- 89
2021-02-03 07:00:00 14.3 4 Nordeste 8 Este 0 -- -- 88
2021-02-03 06:00:00 14.5 6 Sudeste 11 Sudeste 0 -- -- 89
2021-02-03 05:00:00 14.5 4 Oeste 13 Este 0 -- -- 89
2021-02-03 04:00:00 14.5 4 Sudoeste 9 Este 0 -- -- 89
2021-02-03 03:00:00 14.7 5 Nordeste 10 Norte 0 -- -- 89
2021-02-03 02:00:00 14.6 3 Norte 12 Nordeste 0 -- -- 92
2021-02-03 01:00:00 14.9 8 Nordeste 12 Nordeste 0 -- -- 91
2021-02-03 00:00:00 15.4 6 Norte 16 Noroeste 0 -- -- 92
2021-02-02 23:00:00 14.1 2 Noroeste 8 Oeste 0 -- -- 92
2021-02-02 22:00:00 14.7 2 Noroeste 5 Norte 0 -- -- 92
2021-02-02 21:00:00 15 0 Calma 8 Sudeste 0 -- -- 90
2021-02-02 20:00:00 15.9 0 Calma 11 Este 0 -- -- 87
2021-02-02 19:00:00 16.9 4 Este 13 Sudeste 0 -- -- 83
2021-02-02 18:00:00 19 8 Este 17 Este 0 -- -- 74
2021-02-02 17:00:00 20.5 11 Este 19 Este 0 -- -- 68
2021-02-02 16:00:00 21 9 Este 20 Este 0 -- -- 64
2021-02-02 15:00:00 21.5 8 Este 24 Este 0 -- -- 63
2021-02-02 14:00:00 21.1 8 Este 17 Sudeste 0 -- -- 65
2021-02-02 13:00:00 19.3 6 Sudeste 13 Sudeste 0 -- -- 72
2021-02-02 12:00:00 17.7 2 Nordeste 13 Este 0 -- -- 82
2021-02-02 11:00:00 16.9 9 Este 17 Este 0 -- -- 86
2021-02-02 10:00:00 16.2 9 Sudeste 16 Este 0 -- -- 89
2021-02-02 09:00:00 15.4 4 Nordeste 11 Este 0 -- -- 90
2021-02-02 08:00:00 15.1 3 Sur 9 Este 0 -- -- 90
2021-02-02 07:00:00 15 3 Noroeste 7 Nordeste 0 -- -- 91
2021-02-02 06:00:00 14.9 3 Norte 9 Norte 0 -- -- 91
2021-02-02 05:00:00 15 9 Nordeste 20 Nordeste 0 -- -- 91
2021-02-02 04:00:00 15.2 11 Nordeste 22 Nordeste 0 -- -- 91
2021-02-02 03:00:00 15.3 13 Nordeste 26 Nordeste 0 -- -- 90
2021-02-02 02:00:00 15.1 13 Norte 24 Nordeste 0 -- -- 91
2021-02-02 01:00:00 15.2 10 Nordeste 19 Norte 0 -- -- 91
2021-02-02 00:00:00 15.1 13 Noroeste 20 Norte 0 -- -- 91
2021-02-01 23:00:00 15.2 11 Noroeste 18 Noroeste 0 -- -- 89
2021-02-01 22:00:00 15.9 9 Norte 15 Nordeste 0 -- -- 85
2021-02-01 21:00:00 16.2 6 Norte 13 Norte 0 -- -- 81
2021-02-01 20:00:00 16.7 3 Sudoeste 21 Nordeste 0 -- -- 78
2021-02-01 19:00:00 17.4 9 Norte 31 Nordeste 0 -- -- 74
2021-02-01 18:00:00 18.9 18 Nordeste 32 Nordeste 0 -- -- 62
2021-02-01 17:00:00 20.1 19 Nordeste 30 Nordeste 0 -- -- 59
2021-02-01 16:00:00 20.8 21 Nordeste 35 Nordeste 0 -- -- 57
2021-02-01 15:00:00 21.2 24 Nordeste 38 Este 0 -- -- 55
2021-02-01 14:00:00 22.1 25 Nordeste 40 Nordeste 0 -- -- 50
2021-02-01 13:00:00 22.1 25 Nordeste 41 Nordeste 0 -- -- 52
2021-02-01 12:00:00 21.8 22 Nordeste 39 Nordeste 0 -- -- 52
2021-02-01 11:00:00 20.8 24 Nordeste 40 Nordeste 0 -- -- 54
2021-02-01 10:00:00 19.9 23 Nordeste 36 Nordeste 0 -- -- 56
2021-02-01 09:00:00 17.9 10 Norte 34 Noroeste 0 -- -- 68
2021-02-01 08:00:00 -- 25 Norte 37 Norte 0 -- -- --
2021-02-01 07:00:00 15 22 Noroeste 34 Noroeste 0 -- -- 90
2021-02-01 06:00:00 15 23 Noroeste 32 Norte 0 -- -- 90
2021-02-01 05:00:00 15.1 24 Noroeste 36 Noroeste 0 -- -- 86
2021-02-01 04:00:00 15.3 16 Norte 24 Norte 0 -- -- 76
2021-02-01 03:00:00 16.6 14 Norte 26 Norte 0 -- -- 65
2021-02-01 02:00:00 15.1 9 Nordeste 19 Norte 0 -- -- 75
2021-02-01 01:00:00 14.1 11 Norte 19 Norte 0 -- -- 85
2021-02-01 00:00:00 15.5 8 Norte 22 Nordeste 0 -- -- 83
2021-01-31 23:00:00 15.4 15 Noroeste 32 Noroeste 0 -- -- 86
2021-01-31 22:00:00 15.4 23 Noroeste 40 Noroeste 0 -- -- 89
2021-01-31 21:00:00 15.7 32 Noroeste 48 Noroeste 0 -- -- 87
2021-01-31 20:00:00 15.8 38 Noroeste 48 Norte 0 -- -- 86
2021-01-31 19:00:00 16.3 26 Norte 37 Noroeste 0 -- -- 81
2021-01-31 18:00:00 17.6 27 Noroeste 41 Noroeste 0 -- -- 75
2021-01-31 17:00:00 19.1 32 Norte 50 Noroeste 0 -- -- 69
2021-01-31 16:00:00 19.6 38 Noroeste 49 Noroeste 0 -- -- 67
2021-01-31 15:00:00 20.5 31 Noroeste 44 Noroeste 0 -- -- 63
2021-01-31 14:00:00 20.5 32 Norte 41 Noroeste 0 -- -- 63
2021-01-31 13:00:00 19.8 31 Norte 41 Norte 0 -- -- 65
2021-01-31 12:00:00 19.5 30 Norte 42 Noroeste 0 -- -- 66
2021-01-31 11:00:00 18.5 28 Norte 38 Norte 0 -- -- 70
2021-01-31 10:00:00 17.1 28 Norte 39 Norte 0 -- -- 79
2021-01-31 09:00:00 15.7 22 Norte 30 Norte 0 -- -- 86
2021-01-31 08:00:00 14.5 20 Noroeste 28 Noroeste 0 -- -- 90
2021-01-31 07:00:00 14.6 19 Norte 26 Norte 0 -- -- 91
2021-01-31 06:00:00 14.6 15 Norte 25 Norte 0 -- -- 87
2021-01-31 05:00:00 15.4 17 Norte 30 Nordeste 0 -- -- 88
2021-01-31 04:00:00 15.5 20 Norte 32 Norte 0 -- -- 88
2021-01-31 03:00:00 15.6 24 Norte 32 Norte 0 -- -- 88
2021-01-31 02:00:00 15.7 17 Nordeste 29 Norte 0 -- -- 88
2021-01-31 01:00:00 15.5 14 Nordeste 27 Nordeste 0 -- -- 85
2021-01-31 00:00:00 14.5 10 Norte 21 Nordeste 0 -- -- 82
2021-01-30 23:00:00 15 11 Norte 27 Norte 0 -- -- 82
2021-01-30 22:00:00 14.6 20 Norte 28 Norte 0 -- -- 86
2021-01-30 21:00:00 14.3 16 Norte 25 Norte 0 -- -- 86
2021-01-30 20:00:00 14.9 15 Norte 28 Norte 0 -- -- 85
2021-01-30 19:00:00 15.8 18 Norte 29 Norte 0 -- -- 80
2021-01-30 18:00:00 17.5 24 Norte 34 Noroeste 0 -- -- 73
2021-01-30 17:00:00 19.2 24 Norte 38 Norte 0 -- -- 70
2021-01-30 16:00:00 19.9 30 Noroeste 40 Noroeste 0 -- -- 67
2021-01-30 15:00:00 21.3 21 Noroeste 32 Noroeste 0 -- -- 62
2021-01-30 14:00:00 21.4 23 Noroeste 34 Noroeste 0 -- -- 63
2021-01-30 13:00:00 21.5 12 Norte 22 Nordeste 0 -- -- 60
2021-01-30 12:00:00 20.6 8 Norte 23 Nordeste 0 -- -- 64
2021-01-30 11:00:00 18.7 15 Norte 34 Norte 0 -- -- 71
2021-01-30 10:00:00 16.6 23 Norte 37 Norte 0 -- -- 83
2021-01-30 09:00:00 15 23 Norte 32 Noroeste 0 -- -- 89
2021-01-30 08:00:00 13.1 7 Noroeste 10 Noroeste 0 -- -- 93
2021-01-30 07:00:00 13.6 6 Noroeste 12 Oeste 0 -- -- 90
2021-01-30 06:00:00 14.7 0 Calma 10 Sudoeste 0 -- -- 90
2021-01-30 05:00:00 14.5 4 Sudoeste 21 Noroeste 0 -- -- 90
2021-01-30 04:00:00 15.1 17 Noroeste 46 Norte 0 -- -- 89
2021-01-30 03:00:00 15.6 35 Norte 50 Norte 0 -- -- 89
2021-01-30 02:00:00 16.1 24 Noroeste 38 Noroeste 0 -- -- 88
2021-01-30 01:00:00 17.4 21 Norte 28 Norte 0 -- -- 54
2021-01-30 00:00:00 18.8 19 Norte 24 Norte 0 -- -- 42
2021-01-29 23:00:00 20.3 17 Noroeste 22 Noroeste 0 -- -- 40
2021-01-29 22:00:00 18.5 12 Norte 18 Norte 0 -- -- 45
2021-01-29 21:00:00 18.7 13 Norte 18 Norte 0 -- -- 52
2021-01-29 20:00:00 19.2 10 Norte 14 Noroeste 0 -- -- 58
2021-01-29 19:00:00 21.7 4 Sudeste 6 Sudeste 0 -- -- 60
2021-01-29 18:00:00 23.8 2 Este 10 Sudeste 0 -- -- 51
2021-01-29 17:00:00 24.4 5 Sudeste 19 Este 0 -- -- 49
2021-01-29 16:00:00 25.8 13 Este 22 Este 0 -- -- 45
2021-01-29 15:00:00 27.1 12 Este 26 Este 0 -- -- 35
2021-01-29 14:00:00 27.1 12 Este 23 Sudeste 0 -- -- 34
2021-01-29 13:00:00 27.2 12 Sudeste 22 Sur 0 -- -- 31
2021-01-29 12:00:00 26 11 Sudeste 18 Sudeste 0 -- -- 30
2021-01-29 11:00:00 24.9 7 Sudeste 12 Sudeste 0 -- -- 32
2021-01-29 10:00:00 23 4 Sudeste 8 Sudeste 0 -- -- 33
2021-01-29 09:00:00 18.6 0 Calma 4 Sudoeste 0 -- -- 44
2021-01-29 08:00:00 17.2 3 Sudoeste 9 Sudoeste 0 -- -- 44
2021-01-29 07:00:00 15.3 6 Sudoeste 9 Sudoeste 0 -- -- 51
2021-01-29 06:00:00 14.5 0 Calma 5 Noroeste 0 -- -- 58
2021-01-29 05:00:00 13.5 2 Oeste 4 Oeste 0 -- -- 64
2021-01-29 04:00:00 14.7 0 Calma 6 Sudoeste 0 -- -- 59
2021-01-29 03:00:00 15.9 4 Sur 9 Oeste 0 -- -- 58
2021-01-29 02:00:00 17 3 Noroeste 7 Noroeste 0 -- -- 49
2021-01-29 01:00:00 16.3 4 Noroeste 9 Oeste 0 -- -- 46
2021-01-29 00:00:00 16.3 6 Noroeste 9 Oeste 0 -- -- 50
2021-01-28 23:00:00 16.6 4 Oeste 8 Oeste 0 -- -- 46
2021-01-28 22:00:00 17 0 Calma 5 Noroeste 0 -- -- 42
2021-01-28 21:00:00 18.7 5 Noroeste 17 Norte 0 -- -- 44
2021-01-28 20:00:00 19.7 13 Norte 17 Norte 0 -- -- 46
2021-01-28 19:00:00 22.6 9 Norte 12 Noroeste 0 -- -- 38
2021-01-28 18:00:00 25.7 9 Noroeste 19 Sudeste 0 -- -- 33
2021-01-28 17:00:00 27.7 13 Sur 25 Sur 0 -- -- 23
2021-01-28 16:00:00 28.3 18 Sur 28 Sur 0 -- -- 20
2021-01-28 15:00:00 28.4 15 Sur 26 Sur 0 -- -- 20
2021-01-28 14:00:00 28.2 13 Sur 27 Sudeste 0 -- -- 18
2021-01-28 13:00:00 27.2 15 Sudeste 24 Sudeste 0 -- -- 32
2021-01-28 12:00:00 27.2 12 Sudeste 22 Sudeste 0 -- -- 25
2021-01-28 11:00:00 26.3 8 Este 14 Sudeste 0 -- -- 24
2021-01-28 10:00:00 24 4 Este 8 Sudeste 0 -- -- 27
2021-01-28 09:00:00 22.2 3 Sur 10 Sudoeste 0 -- -- 27
2021-01-28 08:00:00 19.2 8 Sudoeste 12 Sudoeste 0 -- -- 31
2021-01-28 07:00:00 19.8 5 Sudoeste 10 Sudoeste 0 -- -- 30
2021-01-28 06:00:00 19.4 4 Sudoeste 10 Sur 0 -- -- 31
2021-01-28 05:00:00 18.5 6 Sur 12 Sur 0 -- -- 34
2021-01-28 04:00:00 17.7 8 Sudoeste 11 Sudoeste 0 -- -- 34
2021-01-28 03:00:00 18.2 5 Sudeste 13 Oeste 0 -- -- 32
2021-01-28 02:00:00 18.5 4 Oeste 7 Oeste 0 -- -- 31
2021-01-28 01:00:00 18.3 0 Calma 8 Sudoeste 0 -- -- 31
2021-01-28 00:00:00 17.6 6 Sur 8 Sur 0 -- -- 37
2021-01-27 23:00:00 16.6 0 Calma 5 Sudoeste 0 -- -- 43
2021-01-27 22:00:00 17.9 0 Calma 6 Este 0 -- -- 59
2021-01-27 21:00:00 17.9 3 Noroeste 6 Noroeste 0 -- -- 34
2021-01-27 20:00:00 18.8 2 Noroeste 5 Noroeste 0 -- -- 44
2021-01-27 19:00:00 21.5 0 Calma 5 Sudeste 0 -- -- 58
2021-01-27 18:00:00 23.4 4 Sudeste 11 Este 0 -- -- 54
2021-01-27 17:00:00 25.2 5 Este 18 Este 0 -- -- 45
2021-01-27 16:00:00 25.9 11 Este 17 Este 0 -- -- 40
2021-01-27 15:00:00 26 10 Sudeste 17 Este 0 -- -- 39
2021-01-27 14:00:00 24.4 9 Sudeste 16 Sudeste 0 -- -- 44
2021-01-27 13:00:00 22.1 9 Este 18 Este 0 -- -- 64
2021-01-27 12:00:00 21 8 Este 18 Sudeste 0 -- -- 68
2021-01-27 11:00:00 19.9 11 Este 15 Sudeste 0 -- -- 75
2021-01-27 10:00:00 17.3 4 Sudeste 12 Este 0 -- -- 90
2021-01-27 09:00:00 15.1 5 Sur 7 Sur 0 -- -- 95
2021-01-27 08:00:00 12.1 4 Noroeste 8 Noroeste 0 -- -- 94
2021-01-27 07:00:00 12.6 7 Noroeste 12 Noroeste 0 -- -- 95
2021-01-27 06:00:00 12.7 3 Noroeste 9 Sudoeste 0 -- -- 93
2021-01-27 05:00:00 13.5 6 Sudoeste 10 Oeste 0 -- -- 94
2021-01-27 04:00:00 13.6 6 Oeste 9 Oeste 0 -- -- 93
2021-01-27 03:00:00 14.1 5 Oeste 9 Oeste 0 -- -- 93
2021-01-27 02:00:00 14.9 0 Calma 23 Este 0 -- -- 91
2021-01-27 01:00:00 15.4 9 Nordeste 21 Nordeste 0 -- -- 90
2021-01-27 00:00:00 15.4 5 Nordeste 18 Nordeste 0 -- -- 90
2021-01-26 23:00:00 15.7 9 Nordeste 18 Este 0 -- -- 88
2021-01-26 22:00:00 16 8 Nordeste 22 Nordeste 0 -- -- 86
2021-01-26 21:00:00 16.3 7 Norte 26 Nordeste 0 -- -- 80
2021-01-26 20:00:00 16.5 13 Nordeste 28 Norte 0 -- -- 83
2021-01-26 19:00:00 17.8 13 Nordeste 33 Nordeste 0 -- -- 71
2021-01-26 18:00:00 19.2 22 Nordeste 33 Nordeste 0 -- -- 62
2021-01-26 17:00:00 20.5 19 Nordeste 38 Nordeste 0 -- -- 59
2021-01-26 16:00:00 20.5 23 Nordeste 37 Nordeste 0 -- -- 61
2021-01-26 15:00:00 20.5 23 Nordeste 36 Nordeste 0 -- -- 63
2021-01-26 14:00:00 20.3 25 Nordeste 38 Nordeste 0 -- -- 66
2021-01-26 13:00:00 20 25 Nordeste 39 Nordeste 0 -- -- 67
2021-01-26 12:00:00 18.7 25 Nordeste 40 Nordeste 0 -- -- 72
2021-01-26 11:00:00 17.7 25 Nordeste 38 Nordeste 0 -- -- 77
2021-01-26 10:00:00 17 22 Nordeste 39 Nordeste 0 -- -- 79
2021-01-26 09:00:00 16.1 19 Nordeste 32 Nordeste 0 -- -- 82
2021-01-26 08:00:00 15.3 16 Norte 29 Norte 0 -- -- 84
2021-01-26 07:00:00 15.1 14 Nordeste 26 Nordeste 0 -- -- 85
2021-01-26 06:00:00 14.8 13 Norte 23 Nordeste 0 -- -- 85
2021-01-26 05:00:00 14.2 12 Norte 28 Norte 0 -- -- 84
2021-01-26 04:00:00 14.8 18 Norte 27 Nordeste 0 -- -- 85
2021-01-26 03:00:00 12.9 10 Norte 14 Norte 0 -- -- 90
2021-01-26 02:00:00 13.6 9 Norte 21 Noroeste 0 -- -- 88
2021-01-26 01:00:00 13.8 8 Noroeste 15 Norte 0 -- -- 86
2021-01-26 00:00:00 14.1 9 Norte 19 Nordeste 0 -- -- 85
2021-01-25 23:00:00 14.6 12 Norte 25 Nordeste 0 -- -- 83
2021-01-25 22:00:00 15.1 16 Nordeste 23 Nordeste 0 -- -- 82
2021-01-25 21:00:00 15.5 12 Nordeste 19 Norte 0 -- -- 79
2021-01-25 20:00:00 16.6 12 Nordeste 32 Norte 0 -- -- 77
2021-01-25 19:00:00 16.8 21 Norte 28 Norte 0 -- -- 78
2021-01-25 18:00:00 17.3 20 Nordeste 32 Nordeste 0 -- -- 80
2021-01-25 17:00:00 18.5 21 Nordeste 32 Nordeste 0 -- -- 75
2021-01-25 16:00:00 20.1 18 Nordeste 31 Norte 0 -- -- 69
2021-01-25 15:00:00 20.2 15 Nordeste 37 Norte 0 -- -- 69
2021-01-25 14:00:00 20.9 27 Noroeste 35 Noroeste 0 -- -- 65
2021-01-25 13:00:00 -- 14 Norte 27 Norte 0 -- -- --
2021-01-25 12:00:00 20 9 Norte 25 Nordeste 0 -- -- 66
2021-01-25 11:00:00 19.2 11 Norte 23 Norte 0 -- -- 66
2021-01-25 10:00:00 17.4 19 Noroeste 24 Noroeste 0 -- -- 73
2021-01-25 09:00:00 15.5 12 Norte 15 Norte 0 -- -- 73
2021-01-25 08:00:00 12.2 9 Norte 13 Noroeste 0 -- -- 77
2021-01-25 07:00:00 12.6 8 Noroeste 13 Noroeste 0 -- -- 76
2021-01-25 06:00:00 12.7 10 Noroeste 12 Noroeste 0 -- -- 77
2021-01-25 05:00:00 13.5 8 Noroeste 16 Noroeste 0 -- -- 74
2021-01-25 04:00:00 13.8 6 Noroeste 10 Noroeste 0 -- -- 73
2021-01-25 03:00:00 13.6 10 Noroeste 14 Noroeste 0 -- -- 76
2021-01-25 02:00:00 14.2 7 Noroeste 13 Nordeste 0 -- -- 70
2021-01-25 01:00:00 13.7 4 Noroeste 13 Noroeste 0 -- -- 73
2021-01-25 00:00:00 15.1 8 Norte 15 Norte 0 -- -- 73